Axson, GA

1:42 PM EDT on July 04, 2015 (GMT -0400)
Douglas Municipal | | Change Station
CLOSE
Current Station
Airport
Location: Douglas,
Elevation: 256 ft
Nearby Weather Stations

Elev 256 ft 31.48 °N, 82.86 °W | Updated 7 minutes ago

Partly Cloudy
Partly Cloudy
90 °F
Feels Like 95 °F
N
7
Wind Variable Wind from SSW

Today
High -- | Low -- °F
--% Chance of Precip.
Yesterday
High -- | Low -- °F
Precip. -- in
6:31 AM 8:39 PM
Waning Gibbous, 91% visible
Pressure 30.10 in
Visibility 10.0 miles
Clouds Scattered Clouds 3800 ft
Scattered Clouds 4400 ft
Heat Index 95 °F
Dew Point 70 °F
Humidity 52%
Rainfall 0.00 in
Snow Depth Not available.
UV 11 out of 12
Pollen 2.60 out of 12
Air Quality Not available.
Flu Activity Not available.
METAR KDQH 041735Z AUTO 21006KT 10SM SCT038 SCT044 32/21 A3010 RMK AO2 LTG DSNT NW

More Conditions Fewer Conditions

Pressure 30.10 in
Visibility 10.0 miles
Clouds Scattered Clouds 3800 ft
Scattered Clouds 4400 ft
Heat Index 95 °F
Dew Point 70 °F
Humidity 52%
Rainfall 0.00 in
Snow Depth Not available.
UV 11 out of 12
Pollen 2.60 out of 12
Air Quality Not available.
Flu Activity Not available.
METAR KDQH 041735Z AUTO 21006KT 10SM SCT038 SCT044 32/21 A3010 RMK AO2 LTG DSNT NW

More Conditions Fewer Conditions

10-Day Weather Forecast

×

Almanac

Astronomy

Jul. 04, 2015 Rise Set
Actual Time
Civil Twilight
Nautical Twilight
Astronomical Twilight
Moon
Length of Visible Light
Length of Day
Tomorrow will be .
, % of the Moon is Illuminated

Today's Extremes

State Highs State Lows

Community

WunderPhotos

Upload Photos

1,835,012 photos uploaded!

WunderBlogs® & News

Nearby

Air Quality

  Air Quality AQ Index Pollutant
Not available.

Snow Depth

Station Depth Elevation

Earthquake Activity

City Distance Mag. Time & Date
Minimum magnitude displayed is 2.5.

Coastal Water Temperatures

Place Temperature

Stations

Nearby Weather Stations

Station Location Temp. Windchill Dew Point Humidity Wind Precip. Elev Updated Type